Beaufort County Airport

Current Flights

Departures
Number Departure To Airline
Arrivals
Number Arrival From Airline
Info
Name: Beaufort County Airport
Identifier:  BFT/KNBC
Local Time:  19. May 15:09
City
Flights per Day
6 flights
Distance: 386km (240mi)
Punctuality
76% (1 flights per day delayed)
Delay Average: 30 minutes
Current Weather
 28 C (Humidity: 69%)
  4kt (7km/h / 4mph) from 160°
  Few clouds at 2,500 feet (762 meter)
  16km (10 mi.)
 METAR KNBC 191456Z AUTO 16004KT 10SM FEW025 28/22 A3010 RMK AO2 SLP192 T02830217 53005

Current Delays

Departures
N/A
Arrivals
N/A

Destinations

Top Destinations
Airport Flights
per week
Seats
per week
  Atlanta (PDK) <1 - 0 0
  Greenville (GMU) <1 - 0 0
  Spartanburg (SPA) <1 - 0 0
  Hilton Head Island (HHH) <1 - 0 0
  Baton Rouge (BTR) <1 - 0 0

Airlines & Planes

Top Airlines
Airline Flights
per Day
Seats
per Day
Jet Charter Inc ( Franklin Lakes Nj ) <1 -
Nordwind Airlines <1 -
Gama Aviation <1 -
  Flybe Nordic <1 -
  Centennial Airlines <1 -
  Novair <1 -
Tradewind Aviation <1 -
Top Plane Types
Manufacturer Model Flights Seats
Pilatus PC-12 0.7/day - -0.06666666666666667
Beech 58 0.4/day - 0
Beech B300 Super King Air 350 0.4/day - 0
Beech B200 Super King Air 0.3/day - 0
Beech G36 Bonanza 0.2/day - 0